createdAt,value
2017-10-14T00:00:29.545Z,82.52
2017-10-14T00:02:57.044Z,82.90
2017-10-14T00:05:24.572Z,82.78
2017-10-14T00:07:52.125Z,82.59
2017-10-14T00:10:19.685Z,82.67
2017-10-14T00:12:47.195Z,82.45
2017-10-14T00:15:14.823Z,82.64
2017-10-14T00:17:42.315Z,82.88
2017-10-14T00:20:09.806Z,82.79
2017-10-14T00:22:37.412Z,82.81
2017-10-14T00:25:04.941Z,83.06
2017-10-14T00:27:32.522Z,83.04
2017-10-14T00:30:00.017Z,83.63
2017-10-14T00:32:27.566Z,84.04
2017-10-14T00:34:55.064Z,83.78
2017-10-14T00:37:22.651Z,83.57
2017-10-14T00:39:50.242Z,83.44
2017-10-14T00:42:17.738Z,83.74
2017-10-14T00:44:45.228Z,83.97
2017-10-14T00:47:12.758Z,84.24
2017-10-14T00:49:40.314Z,83.93
2017-10-14T00:52:07.806Z,83.70
2017-10-14T00:54:35.299Z,83.77
2017-10-14T00:57:02.848Z,83.81
2017-10-14T00:59:30.379Z,83.35
2017-10-14T01:01:57.875Z,83.36
2017-10-14T01:04:25.409Z,83.43
2017-10-14T01:06:52.962Z,83.28
2017-10-14T01:09:20.456Z,83.59
2017-10-14T01:11:47.998Z,83.23
2017-10-14T01:14:15.488Z,83.41
2017-10-14T01:16:43.089Z,83.25
2017-10-14T01:19:10.640Z,83.29
2017-10-14T01:21:38.132Z,83.16
2017-10-14T01:24:05.668Z,83.23
2017-10-14T01:26:33.230Z,83.14
2017-10-14T01:29:00.723Z,83.23
2017-10-14T01:31:28.243Z,83.28
2017-10-14T01:33:55.801Z,83.49
2017-10-14T01:36:23.300Z,83.60
2017-10-14T01:38:50.803Z,83.66
2017-10-14T01:41:18.324Z,83.60
2017-10-14T01:43:45.844Z,83.80
2017-10-14T01:46:13.410Z,83.63
2017-10-14T01:48:40.907Z,83.69
2017-10-14T01:51:08.411Z,83.66
2017-10-14T01:53:35.950Z,83.59
2017-10-14T01:56:03.507Z,83.60
2017-10-14T01:58:31.012Z,83.54
2017-10-14T02:00:58.551Z,83.63
2017-10-14T02:03:26.045Z,83.98
2017-10-14T02:05:53.560Z,83.84
2017-10-14T02:08:21.084Z,83.77
2017-10-14T02:10:48.620Z,83.78
2017-10-14T02:13:16.117Z,83.79
2017-10-14T02:15:43.613Z,83.99
2017-10-14T02:18:11.251Z,84.06
2017-10-14T02:20:38.808Z,83.99
2017-10-14T02:23:06.292Z,83.83
2017-10-14T02:25:33.932Z,83.74
2017-10-14T02:28:01.432Z,83.80
2017-10-14T02:30:28.926Z,83.88
2017-10-14T02:32:56.474Z,83.95
2017-10-14T02:35:23.976Z,84.00
2017-10-14T02:37:51.491Z,84.01
2017-10-14T02:40:19.026Z,83.96
2017-10-14T02:42:46.512Z,83.97
2017-10-14T02:45:14.052Z,83.89
2017-10-14T02:47:41.545Z,84.08
2017-10-14T02:50:09.119Z,84.04
2017-10-14T02:52:36.639Z,83.90
2017-10-14T02:55:04.178Z,83.80
2017-10-14T02:57:31.678Z,84.02
2017-10-14T02:59:59.175Z,83.75
2017-10-14T03:02:26.712Z,83.77
2017-10-14T03:04:54.249Z,83.64
2017-10-14T03:07:21.743Z,83.60
2017-10-14T03:09:49.233Z,83.57
2017-10-14T03:12:16.790Z,83.67
2017-10-14T03:14:44.284Z,83.74
2017-10-14T03:17:11.783Z,83.65
2017-10-14T03:19:39.331Z,83.65
2017-10-14T03:22:06.825Z,83.62
2017-10-14T03:24:34.318Z,83.63
2017-10-14T03:27:01.891Z,83.65
2017-10-14T03:29:29.383Z,83.57
2017-10-14T03:31:56.877Z,83.60
2017-10-14T03:34:24.460Z,83.51
2017-10-14T03:36:52.019Z,83.57
2017-10-14T03:39:19.512Z,83.60
2017-10-14T03:44:20.872Z,83.65
2017-10-14T03:46:48.510Z,83.76
2017-10-14T03:49:16.010Z,83.71
2017-10-14T03:51:43.504Z,83.71
2017-10-14T03:54:11.066Z,83.78
2017-10-14T03:56:38.562Z,83.76
2017-10-14T03:59:06.055Z,83.75
2017-10-14T04:01:33.598Z,83.90
2017-10-14T04:04:01.092Z,83.90
2017-10-14T04:06:28.590Z,83.86
2017-10-14T04:08:56.241Z,83.96
2017-10-14T04:11:23.737Z,83.97
2017-10-14T04:13:51.237Z,83.98
2017-10-14T04:16:18.782Z,84.04
2017-10-14T04:18:46.281Z,84.07
2017-10-14T04:21:13.831Z,84.17
2017-10-14T04:23:41.388Z,84.08
2017-10-14T04:26:08.953Z,84.19
2017-10-14T04:28:36.448Z,84.30
2017-10-14T04:31:03.977Z,84.32
2017-10-14T04:33:31.471Z,84.36
2017-10-14T04:35:59.021Z,84.38
2017-10-14T04:38:26.508Z,84.32
2017-10-14T04:40:54.014Z,84.31
2017-10-14T04:43:21.543Z,84.27
2017-10-14T04:45:49.053Z,84.27
2017-10-14T04:48:16.565Z,84.14
2017-10-14T04:50:44.125Z,84.19
2017-10-14T04:53:11.627Z,84.20
2017-10-14T04:55:39.153Z,84.29
2017-10-14T04:58:06.728Z,84.35
2017-10-14T05:00:34.263Z,84.26
2017-10-14T05:03:01.756Z,84.32
2017-10-14T05:05:29.250Z,84.34
2017-10-14T05:07:56.860Z,84.38
2017-10-14T05:10:24.351Z,84.43
2017-10-14T05:12:51.842Z,84.48
2017-10-14T05:15:19.719Z,84.61
2017-10-14T05:17:47.210Z,84.64
2017-10-14T05:20:14.712Z,84.68
2017-10-14T05:22:42.318Z,84.82
2017-10-14T05:25:09.862Z,84.84
2017-10-14T05:27:37.438Z,84.95
2017-10-14T05:30:04.965Z,85.01
2017-10-14T05:32:32.490Z,85.12
2017-10-14T05:34:59.987Z,85.13
2017-10-14T05:37:27.548Z,85.11
2017-10-14T05:39:55.049Z,84.94
2017-10-14T05:42:22.593Z,84.80
2017-10-14T05:44:50.099Z,84.72
2017-10-14T05:47:17.683Z,84.61
2017-10-14T05:49:45.235Z,84.55
2017-10-14T05:52:12.816Z,84.58
2017-10-14T05:54:40.313Z,84.42
2017-10-14T05:57:07.840Z,84.44
2017-10-14T05:59:35.334Z,84.46
2017-10-14T06:02:02.833Z,84.43
2017-10-14T06:04:30.503Z,84.43
2017-10-14T06:06:58.064Z,84.35
2017-10-14T06:09:25.616Z,84.37
2017-10-14T06:11:53.156Z,84.33
2017-10-14T06:14:20.659Z,84.23
2017-10-14T06:16:48.215Z,84.26
2017-10-14T06:19:15.756Z,84.27
2017-10-14T06:21:43.253Z,84.32
2017-10-14T06:24:10.891Z,84.37
2017-10-14T06:26:38.388Z,84.38
2017-10-14T06:29:05.987Z,84.34
2017-10-14T06:31:33.523Z,84.41
2017-10-14T06:34:01.022Z,84.29
2017-10-14T06:36:28.512Z,84.24
2017-10-14T06:38:56.056Z,84.21
2017-10-14T06:41:23.547Z,84.20
2017-10-14T06:43:51.056Z,84.10
2017-10-14T06:46:18.607Z,84.03
2017-10-14T06:48:46.160Z,83.90
2017-10-14T06:51:13.666Z,83.79
2017-10-14T06:53:41.166Z,83.58
2017-10-14T06:56:08.715Z,83.31
2017-10-14T06:58:36.201Z,83.05
2017-10-14T07:01:03.698Z,82.63
2017-10-14T07:03:31.240Z,82.65
2017-10-14T07:05:58.730Z,82.40
2017-10-14T07:08:26.228Z,82.23
2017-10-14T07:10:53.788Z,82.09
2017-10-14T07:13:21.341Z,81.86
2017-10-14T07:15:48.903Z,81.79
2017-10-14T07:18:16.482Z,81.48
2017-10-14T07:20:43.983Z,81.19
2017-10-14T07:23:11.474Z,80.96
2017-10-14T07:25:39.018Z,80.72
2017-10-14T07:28:06.514Z,80.24
2017-10-14T07:30:34.016Z,80.32
2017-10-14T07:33:01.574Z,80.10
2017-10-14T07:35:29.072Z,79.75
2017-10-14T07:37:56.565Z,79.45
2017-10-14T07:40:24.196Z,79.36
2017-10-14T07:42:51.698Z,79.54
2017-10-14T07:45:19.187Z,79.53
2017-10-14T07:47:46.760Z,79.43
2017-10-14T07:50:14.252Z,79.31
2017-10-14T07:52:41.767Z,79.03
2017-10-14T07:55:09.328Z,78.65
2017-10-14T07:57:36.822Z,78.67
2017-10-14T08:00:04.317Z,78.68
2017-10-14T08:02:31.851Z,78.49
2017-10-14T08:04:59.345Z,78.19
2017-10-14T08:07:26.837Z,77.50
2017-10-14T08:09:54.370Z,76.99
2017-10-14T08:12:21.862Z,77.35
2017-10-14T08:14:49.347Z,77.18
2017-10-14T08:17:16.963Z,76.15
2017-10-14T08:19:44.450Z,74.83
2017-10-14T08:22:12.000Z,74.58
2017-10-14T08:24:39.559Z,74.36
2017-10-14T08:27:07.048Z,73.96
2017-10-14T08:29:34.542Z,73.87
2017-10-14T08:32:02.088Z,73.74
2017-10-14T08:34:29.588Z,73.75
2017-10-14T08:36:57.091Z,74.06
2017-10-14T08:39:24.641Z,74.02
2017-10-14T08:41:52.131Z,74.42
2017-10-14T08:44:19.672Z,74.48
2017-10-14T08:46:47.205Z,74.29
2017-10-14T08:49:14.712Z,73.90
2017-10-14T08:51:42.286Z,73.45
2017-10-14T08:54:09.784Z,73.16
2017-10-14T08:56:37.291Z,73.02
2017-10-14T08:59:04.855Z,73.29
2017-10-14T09:01:32.352Z,73.80
2017-10-14T09:03:59.848Z,73.85
2017-10-14T09:06:27.394Z,74.25
2017-10-14T09:08:54.897Z,74.28
2017-10-14T09:11:22.402Z,74.60
2017-10-14T09:13:49.924Z,74.49
2017-10-14T09:16:17.422Z,74.52
2017-10-14T09:18:44.968Z,74.42
2017-10-14T09:21:12.492Z,74.59
2017-10-14T09:23:39.987Z,74.26
2017-10-14T09:26:07.513Z,74.26
2017-10-14T09:28:35.062Z,74.08
2017-10-14T09:31:02.556Z,74.00
2017-10-14T09:33:30.078Z,74.02
2017-10-14T09:35:57.600Z,74.01
2017-10-14T09:38:25.197Z,73.96
2017-10-14T09:40:52.696Z,74.15
2017-10-14T09:43:20.204Z,74.32
2017-10-14T09:45:47.753Z,74.39
2017-10-14T09:48:15.348Z,74.49
2017-10-14T09:50:42.847Z,74.47
2017-10-14T09:53:10.394Z,74.78
2017-10-14T09:55:37.895Z,74.87
2017-10-14T09:58:05.400Z,74.96
2017-10-14T10:00:32.937Z,75.21
2017-10-14T10:03:00.428Z,75.42
2017-10-14T10:05:27.915Z,75.46
2017-10-14T10:07:55.503Z,75.66
2017-10-14T10:10:23.004Z,75.32
2017-10-14T10:12:50.516Z,75.47
2017-10-14T10:15:18.057Z,75.56
2017-10-14T10:17:45.628Z,75.80
2017-10-14T10:20:13.124Z,75.75
2017-10-14T10:22:40.644Z,75.47
2017-10-14T10:25:08.202Z,75.07
2017-10-14T10:27:35.697Z,74.74
2017-10-14T10:30:03.195Z,74.51
2017-10-14T10:32:30.720Z,74.23
2017-10-14T10:34:58.213Z,74.04
2017-10-14T10:37:25.795Z,74.35
2017-10-14T10:42:27.172Z,74.10
2017-10-14T10:44:54.669Z,74.08
2017-10-14T10:47:22.179Z,73.99
2017-10-14T10:49:49.723Z,74.03
2017-10-14T10:52:17.220Z,74.36
2017-10-14T10:54:44.716Z,74.71
2017-10-14T10:57:12.258Z,75.05
2017-10-14T10:59:39.769Z,74.98
2017-10-14T11:02:07.285Z,74.82
2017-10-14T11:04:34.896Z,74.61
2017-10-14T11:07:02.477Z,74.17
2017-10-14T11:09:29.968Z,74.25
2017-10-14T11:11:57.490Z,73.77
2017-10-14T11:14:25.032Z,73.17
2017-10-14T11:16:52.585Z,72.75
2017-10-14T11:19:20.624Z,72.99
2017-10-14T11:21:48.149Z,72.66
2017-10-14T11:24:15.653Z,72.48
2017-10-14T11:26:43.196Z,72.75
2017-10-14T11:29:10.714Z,72.56
2017-10-14T11:31:38.246Z,72.79
2017-10-14T11:34:05.815Z,73.15
2017-10-14T11:36:33.308Z,73.00
2017-10-14T11:39:00.800Z,72.96
2017-10-14T11:41:28.403Z,72.41
2017-10-14T11:43:55.901Z,72.13
2017-10-14T11:46:23.408Z,71.71
2017-10-14T11:48:50.971Z,71.83
2017-10-14T11:51:18.467Z,71.66
2017-10-14T11:53:46.022Z,71.97
2017-10-14T11:56:13.528Z,72.29
2017-10-14T11:58:41.023Z,72.47
2017-10-14T12:01:08.549Z,72.67
2017-10-14T12:03:36.044Z,72.63
2017-10-14T12:06:03.584Z,72.20
2017-10-14T12:08:31.189Z,71.78
2017-10-14T12:10:58.811Z,71.73
2017-10-14T12:13:26.356Z,71.73
2017-10-14T12:15:53.852Z,71.28
2017-10-14T12:18:21.347Z,71.22
2017-10-14T12:20:48.944Z,70.65
2017-10-14T12:23:16.433Z,70.49
2017-10-14T12:25:43.947Z,70.27
2017-10-14T12:28:11.614Z,69.57
2017-10-14T12:30:39.112Z,69.57
2017-10-14T12:33:06.606Z,69.45
2017-10-14T12:35:34.130Z,69.86
2017-10-14T12:38:01.656Z,69.66
2017-10-14T12:40:29.167Z,69.49
2017-10-14T12:42:56.703Z,69.19
2017-10-14T12:45:24.225Z,68.82
2017-10-14T12:47:51.759Z,68.41
2017-10-14T12:50:19.333Z,68.41
2017-10-14T12:52:46.886Z,68.75
2017-10-14T12:55:14.408Z,69.37
2017-10-14T12:57:41.928Z,69.68
2017-10-14T13:00:09.469Z,69.86
2017-10-14T13:02:37.024Z,70.60
2017-10-14T13:05:04.526Z,71.26
2017-10-14T13:07:32.056Z,71.52
2017-10-14T13:09:59.554Z,71.67
2017-10-14T13:12:27.062Z,71.58
2017-10-14T13:14:54.597Z,71.84
2017-10-14T13:17:22.189Z,71.74
2017-10-14T13:19:49.746Z,72.04
2017-10-14T13:22:17.409Z,72.09
2017-10-14T13:24:44.904Z,72.06
2017-10-14T13:27:12.428Z,71.84
2017-10-14T13:29:39.952Z,71.59
2017-10-14T13:32:07.466Z,71.37
2017-10-14T13:34:35.012Z,71.76
2017-10-14T13:37:02.504Z,71.87
2017-10-14T13:39:29.999Z,72.01
2017-10-14T13:41:57.538Z,72.25
2017-10-14T13:44:25.035Z,72.27
2017-10-14T13:46:52.583Z,72.13
2017-10-14T13:49:20.111Z,72.11
2017-10-14T13:51:47.695Z,72.06
2017-10-14T13:54:15.213Z,72.06
2017-10-14T13:56:42.817Z,71.87
2017-10-14T13:59:10.358Z,71.94
2017-10-14T14:01:37.942Z,71.92
2017-10-14T14:04:05.432Z,72.11
2017-10-14T14:06:33.178Z,72.04
2017-10-14T14:09:00.672Z,71.93
2017-10-14T14:11:28.173Z,71.84
2017-10-14T14:13:55.706Z,71.89
2017-10-14T14:16:23.215Z,71.92
2017-10-14T14:18:50.749Z,72.10
2017-10-14T14:21:18.308Z,72.24
2017-10-14T14:23:45.813Z,72.07
2017-10-14T14:26:13.322Z,72.07
2017-10-14T14:28:40.891Z,72.31
2017-10-14T14:31:08.382Z,72.39
2017-10-14T14:33:35.890Z,72.30
2017-10-14T14:36:03.410Z,72.14
2017-10-14T14:38:30.948Z,71.98
2017-10-14T14:40:58.503Z,71.71
2017-10-14T14:43:26.002Z,72.01
2017-10-14T14:45:53.646Z,72.70
2017-10-14T14:48:21.147Z,72.92
2017-10-14T14:50:48.640Z,73.36
2017-10-14T14:53:16.173Z,73.67
2017-10-14T14:55:43.734Z,73.81
2017-10-14T14:58:11.240Z,73.85
2017-10-14T15:00:38.743Z,73.85
2017-10-14T15:03:06.279Z,73.88
2017-10-14T15:05:33.894Z,73.89
2017-10-14T15:08:01.401Z,73.80
2017-10-14T15:10:28.962Z,73.91
2017-10-14T15:12:56.455Z,73.89
2017-10-14T15:15:23.950Z,74.07
2017-10-14T15:17:51.560Z,74.24
2017-10-14T15:20:19.126Z,74.41
2017-10-14T15:22:46.689Z,74.46
2017-10-14T15:25:14.244Z,74.67
2017-10-14T15:27:41.748Z,74.85
2017-10-14T15:30:09.279Z,75.04
2017-10-14T15:32:36.820Z,75.11
2017-10-14T15:35:04.340Z,75.31
2017-10-14T15:37:31.837Z,75.48
2017-10-14T15:39:59.362Z,75.74
2017-10-14T15:42:26.871Z,75.81
2017-10-14T15:44:54.435Z,75.85
2017-10-14T15:47:21.968Z,75.92
2017-10-14T15:49:49.516Z,76.12
2017-10-14T15:52:17.017Z,75.97
2017-10-14T15:54:44.522Z,76.05
2017-10-14T15:57:12.064Z,76.12
2017-10-14T15:59:39.569Z,76.30
2017-10-14T16:02:07.071Z,76.44
2017-10-14T16:04:34.642Z,76.52
2017-10-14T16:07:02.232Z,76.88
2017-10-14T16:09:29.869Z,77.00
2017-10-14T16:11:57.472Z,77.13
2017-10-14T16:14:24.979Z,77.34
2017-10-14T16:16:52.484Z,77.65
2017-10-14T16:19:20.018Z,77.73
2017-10-14T16:21:47.524Z,77.97
2017-10-14T16:24:15.069Z,78.45
2017-10-14T16:26:42.620Z,78.52
2017-10-14T16:29:10.107Z,78.64
2017-10-14T16:31:37.615Z,79.00
2017-10-14T16:34:05.131Z,79.04
2017-10-14T16:36:32.629Z,79.62
2017-10-14T16:39:00.164Z,79.78
2017-10-14T16:41:27.656Z,79.90
2017-10-14T16:43:55.151Z,80.24
2017-10-14T16:46:22.676Z,79.60
2017-10-14T16:48:50.255Z,79.10
2017-10-14T16:51:17.852Z,78.88
2017-10-14T16:53:45.385Z,79.09
2017-10-14T16:56:13.009Z,78.88
2017-10-14T16:58:40.525Z,78.91
2017-10-14T17:01:08.013Z,79.01
2017-10-14T17:03:35.621Z,79.76
2017-10-14T17:06:03.136Z,80.81
2017-10-14T17:08:30.742Z,80.73
2017-10-14T17:10:58.236Z,81.36
2017-10-14T17:13:25.733Z,81.28
2017-10-14T17:15:53.325Z,81.65
2017-10-14T17:18:20.885Z,81.87
2017-10-14T17:20:48.390Z,81.90
2017-10-14T17:23:16.037Z,81.95
2017-10-14T17:25:43.614Z,82.11
2017-10-14T17:28:11.160Z,82.63
2017-10-14T17:30:38.658Z,83.21
2017-10-14T17:33:06.270Z,83.74
2017-10-14T17:35:33.788Z,84.01
2017-10-14T17:38:01.435Z,84.08
2017-10-14T17:40:28.935Z,84.23
2017-10-14T17:42:56.451Z,84.75
2017-10-14T17:45:23.995Z,84.91
2017-10-14T17:47:51.530Z,85.24
2017-10-14T17:50:19.111Z,85.72
2017-10-14T17:52:46.643Z,85.60
2017-10-14T17:55:14.134Z,85.69
2017-10-14T17:57:41.872Z,85.72
2017-10-14T18:00:09.398Z,86.08
2017-10-14T18:02:36.998Z,86.42
2017-10-14T18:05:04.501Z,86.61
2017-10-14T18:07:32.037Z,86.69
2017-10-14T18:09:59.530Z,86.67
2017-10-14T18:12:27.071Z,86.76
2017-10-14T18:14:54.723Z,86.91
2017-10-14T18:17:22.489Z,87.17
2017-10-14T18:19:50.137Z,87.14
2017-10-14T18:22:17.673Z,87.26
2017-10-14T18:24:45.163Z,87.64
2017-10-14T18:27:12.661Z,87.52
2017-10-14T18:29:40.224Z,87.54
2017-10-14T18:32:07.734Z,87.61
2017-10-14T18:34:35.233Z,88.02
2017-10-14T18:37:02.772Z,87.83
2017-10-14T18:39:30.298Z,87.58
2017-10-14T18:41:57.783Z,87.56
2017-10-14T18:44:25.322Z,87.58
2017-10-14T18:46:52.867Z,87.97
2017-10-14T18:49:20.543Z,88.20
2017-10-14T18:51:48.063Z,88.57
2017-10-14T18:54:15.565Z,87.48
2017-10-14T18:56:43.128Z,87.19
2017-10-14T18:59:10.627Z,87.26
2017-10-14T19:01:38.145Z,87.28
2017-10-14T19:04:05.667Z,87.36
2017-10-14T19:06:33.202Z,87.35
2017-10-14T19:09:00.693Z,87.44
2017-10-14T19:11:28.182Z,87.65
2017-10-14T19:13:55.715Z,88.02
2017-10-14T19:16:23.298Z,87.58
2017-10-14T19:18:50.792Z,87.46
2017-10-14T19:21:18.337Z,87.66
2017-10-14T19:23:45.829Z,87.45
2017-10-14T19:26:13.331Z,87.56
2017-10-14T19:28:40.880Z,87.61
2017-10-14T19:31:08.387Z,87.82
2017-10-14T19:33:35.875Z,88.00
2017-10-14T19:36:03.399Z,88.03
2017-10-14T19:38:30.917Z,88.76
2017-10-14T19:40:58.514Z,88.68
2017-10-14T19:43:26.006Z,88.61
2017-10-14T19:45:53.583Z,88.74
2017-10-14T19:48:21.120Z,88.74
2017-10-14T19:50:48.618Z,88.58
2017-10-14T19:53:16.128Z,88.16
2017-10-14T19:55:43.662Z,87.08
2017-10-14T19:58:11.154Z,87.23
2017-10-14T20:00:38.656Z,86.32
2017-10-14T20:03:06.247Z,86.65
2017-10-14T20:05:33.736Z,86.25
2017-10-14T20:08:01.294Z,86.73
2017-10-14T20:10:28.805Z,87.04
2017-10-14T20:12:56.310Z,87.24
2017-10-14T20:15:23.885Z,87.19
2017-10-14T20:17:51.378Z,87.50
2017-10-14T20:20:18.868Z,87.95
2017-10-14T20:22:46.426Z,87.83
2017-10-14T20:25:14.019Z,88.08
2017-10-14T20:27:41.571Z,88.14
2017-10-14T20:30:09.107Z,88.04
2017-10-14T20:32:36.596Z,88.41
2017-10-14T20:35:04.142Z,88.84
2017-10-14T20:37:31.640Z,88.24
2017-10-14T20:40:00.098Z,87.82
2017-10-14T20:42:27.754Z,88.01
2017-10-14T20:44:55.253Z,88.04
2017-10-14T20:47:22.760Z,88.01
2017-10-14T20:49:50.307Z,88.22
2017-10-14T20:52:17.898Z,88.32
2017-10-14T20:54:45.392Z,88.89
2017-10-14T20:57:12.932Z,88.95
2017-10-14T20:59:40.434Z,88.92
2017-10-14T21:02:07.932Z,89.10
2017-10-14T21:04:35.480Z,88.86
2017-10-14T21:07:02.976Z,89.16
2017-10-14T21:09:30.471Z,89.19
2017-10-14T21:11:58.055Z,88.85
2017-10-14T21:14:25.608Z,89.00
2017-10-14T21:16:53.195Z,88.92
2017-10-14T21:19:20.697Z,88.39
2017-10-14T21:21:48.221Z,88.56
2017-10-14T21:24:15.774Z,88.68
2017-10-14T21:26:43.310Z,88.93
2017-10-14T21:29:10.808Z,88.60
2017-10-14T21:31:38.310Z,88.71
2017-10-14T21:34:05.854Z,89.18
2017-10-14T21:36:33.351Z,88.77
2017-10-14T21:39:00.880Z,88.77
2017-10-14T21:41:28.481Z,90.08
2017-10-14T21:43:55.976Z,89.30
2017-10-14T21:46:23.579Z,89.57
2017-10-14T21:48:51.071Z,89.40
2017-10-14T21:51:18.564Z,89.14
2017-10-14T21:53:46.171Z,89.45
2017-10-14T21:56:13.676Z,89.08
2017-10-14T21:58:41.190Z,88.48
2017-10-14T22:01:08.733Z,88.77
2017-10-14T22:03:36.313Z,89.35
2017-10-14T22:06:03.802Z,89.44
2017-10-14T22:08:31.332Z,90.01
2017-10-14T22:10:58.884Z,90.10
2017-10-14T22:13:26.389Z,90.11
2017-10-14T22:15:53.886Z,89.84
2017-10-14T22:18:21.432Z,89.97
2017-10-14T22:20:48.952Z,90.77
2017-10-14T22:23:16.446Z,90.38
2017-10-14T22:25:44.024Z,89.99
2017-10-14T22:28:11.529Z,89.72
2017-10-14T22:30:39.025Z,90.00
2017-10-14T22:33:06.556Z,89.64
2017-10-14T22:35:34.087Z,89.64
2017-10-14T22:38:01.584Z,89.03
2017-10-14T22:40:29.076Z,89.27
2017-10-14T22:42:56.608Z,89.77
2017-10-14T22:45:24.100Z,90.62
2017-10-14T22:47:51.649Z,89.78
2017-10-14T22:50:19.224Z,89.44
2017-10-14T22:52:46.730Z,88.95
2017-10-14T22:55:14.270Z,88.75
2017-10-14T22:57:41.767Z,88.76
2017-10-14T23:00:09.261Z,88.81
2017-10-14T23:02:36.797Z,88.82
2017-10-14T23:05:04.369Z,88.77
2017-10-14T23:07:31.856Z,88.79
2017-10-14T23:09:59.386Z,89.47
2017-10-14T23:12:26.922Z,89.75
2017-10-14T23:14:54.447Z,90.23
2017-10-14T23:17:21.938Z,89.95
2017-10-14T23:19:49.495Z,90.22
2017-10-14T23:22:17.031Z,90.31
2017-10-14T23:24:44.629Z,90.83
2017-10-14T23:27:12.132Z,90.50
2017-10-14T23:29:39.835Z,90.60
2017-10-14T23:32:07.327Z,90.76
2017-10-14T23:34:34.824Z,91.18
2017-10-14T23:37:02.344Z,91.28
2017-10-14T23:39:29.875Z,91.28
2017-10-14T23:41:57.412Z,91.34
2017-10-14T23:44:24.995Z,91.61
2017-10-14T23:46:52.487Z,91.79
2017-10-14T23:49:20.216Z,91.72
2017-10-14T23:51:47.776Z,92.03
2017-10-14T23:54:15.269Z,91.98
2017-10-14T23:56:42.824Z,92.42
2017-10-14T23:59:10.316Z,92.51
